Time;durP1;ratioP1;P1;durP2;ratioP2;P2;SDS_P1;SDS_P2;PMS_P1;PMS_P2;Temp;Humidity;BMP_temperature;BMP_pressure;BME280_temperature;BME280_humidity;BME280_pressure;Samples;Min_cycle;Max_cycle;Signal;HPM_P1;HPM_P2
2023/09/08 06:02:34;;;;;;;22.60;12.07;;;;;;;;;;5040468;23;20502;-72
2023/09/08 06:05:00;;;;;;;34.43;13.63;;;;;;;;;;4897848;29;20426;-71
2023/09/08 06:07:25;;;;;;;24.03;12.50;;;;;;;;;;4897887;29;20411;-71
2023/09/08 06:09:51;;;;;;;24.87;12.93;;;;;;;;;;4903486;29;20495;-71
2023/09/08 06:12:17;;;;;;;20.73;13.10;;;;;;;;;;4916075;29;20434;-71
2023/09/08 06:17:18;;;;;;;19.13;11.40;;;;;;;;;;4933226;29;20700;-72
2023/09/08 06:19:43;;;;;;;20.70;12.87;;;;;;;;;;4935872;29;20932;-72
2023/09/08 06:22:09;;;;;;;25.20;12.83;;;;;;;;;;4935357;29;20776;-71
2023/09/08 06:24:35;;;;;;;22.13;11.90;;;;;;;;;;4935695;29;20773;-72
2023/09/08 06:27:01;;;;;;;20.83;10.70;;;;;;;;;;4934142;29;20933;-71
2023/09/08 06:29:27;;;;;;;20.53;10.43;;;;;;;;;;4935701;29;20434;-72
2023/09/08 06:31:53;;;;;;;20.80;9.83;;;;;;;;;;4935361;29;21029;-73
2023/09/08 06:34:22;;;;;;;16.70;11.67;;;;;;;;;;4935650;29;20781;-72
2023/09/08 06:36:48;;;;;;;19.40;10.63;;;;;;;;;;4935571;29;20501;-72
2023/09/08 06:39:14;;;;;;;21.50;10.70;;;;;;;;;;4935391;29;20445;-73
2023/09/08 06:41:40;;;;;;;18.97;10.27;;;;;;;;;;4934849;29;20448;-72
2023/09/08 06:44:06;;;;;;;16.67;8.67;;;;;;;;;;4935563;29;20501;-72
2023/09/08 06:46:32;;;;;;;21.03;10.77;;;;;;;;;;4935643;29;20932;-72
2023/09/08 06:48:58;;;;;;;19.37;9.37;;;;;;;;;;4935679;29;20420;-71
2023/09/08 06:51:24;;;;;;;20.97;10.50;;;;;;;;;;4926717;29;20422;-75
2023/09/08 06:53:57;;;;;;;20.83;10.60;;;;;;;;;;4916587;29;20446;-77
2023/09/08 06:56:23;;;;;;;13.40;9.90;;;;;;;;;;4923071;29;20983;-76
2023/09/08 06:58:49;;;;;;;15.30;8.97;;;;;;;;;;4935343;29;20410;-76
2023/09/08 07:01:15;;;;;;;14.70;9.40;;;;;;;;;;4935000;29;20845;-76
2023/09/08 07:03:41;;;;;;;15.53;9.20;;;;;;;;;;4935085;29;20422;-76
2023/09/08 07:06:07;;;;;;;15.17;9.87;;;;;;;;;;4935130;29;20453;-76
2023/09/08 07:08:33;;;;;;;16.10;9.43;;;;;;;;;;4935353;29;20418;-76
2023/09/08 07:10:59;;;;;;;19.23;12.53;;;;;;;;;;4934959;29;20509;-76
2023/09/08 07:13:25;;;;;;;17.23;10.30;;;;;;;;;;4933539;29;20775;-76
2023/09/08 07:15:51;;;;;;;17.80;9.20;;;;;;;;;;4934267;29;20492;-72
2023/09/08 07:18:17;;;;;;;15.60;9.00;;;;;;;;;;4934778;29;20480;-73
2023/09/08 07:20:47;;;;;;;16.73;9.03;;;;;;;;;;4934713;29;20992;-73
2023/09/08 07:23:13;;;;;;;14.70;9.53;;;;;;;;;;4934524;29;20487;-73
2023/09/08 07:25:39;;;;;;;16.07;10.00;;;;;;;;;;4934691;29;20455;-73
2023/09/08 07:28:05;;;;;;;17.13;11.20;;;;;;;;;;4934688;29;20418;-73
2023/09/08 07:30:33;;;;;;;15.60;9.53;;;;;;;;;;4934835;29;20413;-72
2023/09/08 07:32:59;;;;;;;16.23;9.77;;;;;;;;;;4934101;29;20433;-73
2023/09/08 07:35:25;;;;;;;15.70;10.93;;;;;;;;;;4934803;29;20437;-73
2023/09/08 07:37:51;;;;;;;18.00;11.30;;;;;;;;;;4934475;29;20976;-72
2023/09/08 07:40:17;;;;;;;19.10;10.67;;;;;;;;;;4934341;29;20829;-73
2023/09/08 07:42:43;;;;;;;16.20;10.83;;;;;;;;;;4934228;29;20421;-74
2023/09/08 07:45:09;;;;;;;18.73;10.57;;;;;;;;;;4934505;29;20441;-74
2023/09/08 07:47:35;;;;;;;15.33;9.30;;;;;;;;;;4934770;29;20413;-73
2023/09/08 07:50:21;;;;;;;19.20;10.07;;;;;;;;;;4934185;29;20457;-73
2023/09/08 07:52:48;;;;;;;14.17;9.40;;;;;;;;;;4934241;29;20413;-72
2023/09/08 07:55:14;;;;;;;20.63;11.33;;;;;;;;;;4933761;29;20492;-73
2023/09/08 07:57:42;;;;;;;18.30;10.67;;;;;;;;;;4934320;29;20528;-73
2023/09/08 08:00:10;;;;;;;15.80;9.90;;;;;;;;;;4934366;29;20429;-74
2023/09/08 08:02:36;;;;;;;15.33;9.70;;;;;;;;;;4934159;29;20422;-73
2023/09/08 08:05:02;;;;;;;14.93;10.17;;;;;;;;;;4932667;29;20816;-73
2023/09/08 08:07:30;;;;;;;18.00;11.10;;;;;;;;;;4934547;29;20509;-73
2023/09/08 08:09:55;;;;;;;20.33;10.20;;;;;;;;;;4933947;29;20476;-72
2023/09/08 08:12:22;;;;;;;22.80;10.07;;;;;;;;;;4927609;29;20427;-72
2023/09/08 08:14:48;;;;;;;17.77;9.60;;;;;;;;;;4933985;29;20428;-75
2023/09/08 08:17:17;;;;;;;16.37;9.87;;;;;;;;;;4934285;29;20869;-74
2023/09/08 08:19:43;;;;;;;13.03;9.33;;;;;;;;;;4934601;29;20410;-75
2023/09/08 08:22:09;;;;;;;17.07;9.70;;;;;;;;;;4934271;29;20413;-74
2023/09/08 08:24:35;;;;;;;16.33;10.63;;;;;;;;;;4934769;29;20434;-74
2023/09/08 08:27:01;;;;;;;19.73;9.83;;;;;;;;;;4935710;29;20492;-74
2023/09/08 08:29:27;;;;;;;24.17;10.37;;;;;;;;;;4934740;29;20476;-74
2023/09/08 08:31:53;;;;;;;15.30;9.63;;;;;;;;;;4935123;29;20424;-73
2023/09/08 08:34:19;;;;;;;18.70;9.87;;;;;;;;;;4935499;29;20456;-72
2023/09/08 08:36:45;;;;;;;13.50;9.80;;;;;;;;;;4938215;29;20503;-73
2023/09/08 08:39:11;;;;;;;15.17;9.70;;;;;;;;;;4939015;29;20830;-74
2023/09/08 08:41:39;;;;;;;19.50;10.23;;;;;;;;;;4938373;29;20417;-74
2023/09/08 08:44:08;;;;;;;13.23;9.00;;;;;;;;;;4933968;29;20449;-72
2023/09/08 08:46:36;;;;;;;14.13;8.67;;;;;;;;;;4937551;29;20465;-72
2023/09/08 08:49:03;;;;;;;12.80;9.63;;;;;;;;;;4934763;29;20422;-73
2023/09/08 08:51:30;;;;;;;17.00;8.70;;;;;;;;;;4923670;29;20433;-74
2023/09/08 08:53:56;;;;;;;19.40;9.10;;;;;;;;;;4935280;29;20897;-74
2023/09/08 08:56:23;;;;;;;11.57;8.70;;;;;;;;;;4921581;29;20488;-73
2023/09/08 08:58:49;;;;;;;14.70;9.30;;;;;;;;;;4936824;29;20413;-73
2023/09/08 09:01:20;;;;;;;13.90;8.90;;;;;;;;;;4936984;29;20426;-73
2023/09/08 09:03:49;;;;;;;15.90;9.90;;;;;;;;;;4928911;29;20910;-73
2023/09/08 09:06:15;;;;;;;17.43;9.43;;;;;;;;;;4920950;29;20426;-73
2023/09/08 09:08:43;;;;;;;14.10;9.60;;;;;;;;;;4929834;29;20489;-74
2023/09/08 09:11:09;;;;;;;14.90;8.50;;;;;;;;;;4919378;29;20448;-73
2023/09/08 09:13:35;;;;;;;12.47;8.40;;;;;;;;;;4919696;29;20970;-74
2023/09/08 09:16:03;;;;;;;17.40;10.00;;;;;;;;;;4936209;29;20540;-74
2023/09/08 09:18:30;;;;;;;13.40;9.63;;;;;;;;;;4909197;29;20438;-74
2023/09/08 09:20:57;;;;;;;12.73;8.80;;;;;;;;;;4937491;29;20723;-74
2023/09/08 09:23:29;;;;;;;14.73;9.20;;;;;;;;;;4932957;29;20406;-76
2023/09/08 09:25:55;;;;;;;22.93;9.50;;;;;;;;;;4930658;29;20493;-76
2023/09/08 09:28:20;;;;;;;19.20;8.33;;;;;;;;;;4933744;29;20427;-76
2023/09/08 09:30:48;;;;;;;15.40;8.90;;;;;;;;;;4917517;29;20941;-74
2023/09/08 09:33:14;;;;;;;13.57;7.90;;;;;;;;;;4917155;29;20450;-73
2023/09/08 09:36:00;;;;;;;14.40;7.80;;;;;;;;;;4917278;29;20438;-75
2023/09/08 09:38:27;;;;;;;12.40;8.60;;;;;;;;;;4934236;29;20772;-76
2023/09/08 09:40:53;;;;;;;15.17;8.37;;;;;;;;;;4936335;29;20414;-75
2023/09/08 09:43:22;;;;;;;13.77;7.63;;;;;;;;;;4932736;29;20414;-74
2023/09/08 09:45:48;;;;;;;10.40;7.53;;;;;;;;;;4918090;29;20989;-75
2023/09/08 09:48:14;;;;;;;13.00;7.97;;;;;;;;;;4933926;29;20506;-74
2023/09/08 09:50:43;;;;;;;11.83;7.77;;;;;;;;;;4927213;29;20421;-75
2023/09/08 09:53:16;;;;;;;14.00;8.23;;;;;;;;;;4934562;29;20549;-75
2023/09/08 09:55:43;;;;;;;10.33;8.40;;;;;;;;;;4920883;29;20438;-75
2023/09/08 09:58:10;;;;;;;15.20;8.50;;;;;;;;;;4922597;29;20624;-74
2023/09/08 10:00:37;;;;;;;9.83;7.27;;;;;;;;;;4917221;29;20914;-74
2023/09/08 10:03:04;;;;;;;10.03;7.47;;;;;;;;;;4916725;29;20414;-75
2023/09/08 10:05:30;;;;;;;8.97;7.70;;;;;;;;;;4917105;29;20445;-75
2023/09/08 10:07:56;;;;;;;11.43;7.50;;;;;;;;;;4917205;29;20483;-75
2023/09/08 10:10:22;;;;;;;13.80;7.53;;;;;;;;;;4916932;29;20914;-74
2023/09/08 10:12:52;;;;;;;13.13;7.73;;;;;;;;;;4916617;29;20418;-74
2023/09/08 10:15:22;;;;;;;11.83;7.33;;;;;;;;;;4916647;29;20819;-72
2023/09/08 10:17:52;;;;;;;11.63;7.33;;;;;;;;;;4916773;29;20537;-73
2023/09/08 10:20:19;;;;;;;9.30;7.57;;;;;;;;;;4916242;29;20423;-74
2023/09/08 10:22:46;;;;;;;10.37;6.90;;;;;;;;;;4915947;29;20490;-74
2023/09/08 10:25:13;;;;;;;9.57;7.80;;;;;;;;;;4916115;29;20437;-73
2023/09/08 10:27:39;;;;;;;13.90;9.10;;;;;;;;;;4916228;29;20937;-72
2023/09/08 10:30:06;;;;;;;9.37;7.70;;;;;;;;;;4916305;29;20422;-74
2023/09/08 10:32:36;;;;;;;12.03;8.40;;;;;;;;;;4911232;29;20439;-71
2023/09/08 10:35:03;;;;;;;9.60;7.63;;;;;;;;;;4897428;29;20931;-74
2023/09/08 10:37:29;;;;;;;12.13;7.60;;;;;;;;;;4901358;29;20489;-75
2023/09/08 10:39:56;;;;;;;11.67;7.63;;;;;;;;;;4914963;29;20411;-74
2023/09/08 10:42:25;;;;;;;12.13;8.30;;;;;;;;;;4915313;29;20433;-75
2023/09/08 10:44:51;;;;;;;9.23;7.90;;;;;;;;;;4915831;29;20411;-73
2023/09/08 10:47:24;;;;;;;11.83;7.43;;;;;;;;;;4915566;29;20453;-74
2023/09/08 10:49:56;;;;;;;16.77;8.10;;;;;;;;;;4916651;29;20653;-74
2023/09/08 10:52:22;;;;;;;14.13;8.20;;;;;;;;;;4915562;29;21300;-73
2023/09/08 10:54:49;;;;;;;10.33;7.53;;;;;;;;;;4916180;29;20437;-74
2023/09/08 10:57:16;;;;;;;10.27;7.80;;;;;;;;;;4915413;29;20961;-74
2023/09/08 10:59:46;;;;;;;10.97;8.00;;;;;;;;;;4924867;29;20433;-74
2023/09/08 11:02:30;;;;;;;10.23;7.77;;;;;;;;;;4938977;29;20481;-73
2023/09/08 11:04:56;;;;;;;16.60;8.10;;;;;;;;;;4944249;29;20477;-70
2023/09/08 11:07:22;;;;;;;10.37;7.97;;;;;;;;;;4940164;29;20477;-72
2023/09/08 11:09:48;;;;;;;11.17;8.30;;;;;;;;;;4936519;29;20433;-72
2023/09/08 11:12:16;;;;;;;13.10;8.70;;;;;;;;;;4945968;29;20432;-72
2023/09/08 11:14:43;;;;;;;11.73;7.97;;;;;;;;;;4927238;29;20538;-72
2023/09/08 11:17:10;;;;;;;10.93;8.93;;;;;;;;;;4934596;29;20475;-72
2023/09/08 11:19:48;;;;;;;16.47;8.23;;;;;;;;;;4940682;29;20458;-72
2023/09/08 11:22:15;;;;;;;13.77;9.63;;;;;;;;;;4936465;29;20422;-71
2023/09/08 11:24:45;;;;;;;9.77;8.00;;;;;;;;;;4922971;29;20418;-72
2023/09/08 11:27:14;;;;;;;12.57;8.80;;;;;;;;;;4916453;29;20783;-71
2023/09/08 11:29:40;;;;;;;13.53;9.00;;;;;;;;;;4934603;29;20444;-69
2023/09/08 11:32:07;;;;;;;12.80;8.77;;;;;;;;;;4933973;29;20505;-69
2023/09/08 11:34:34;;;;;;;18.97;8.63;;;;;;;;;;4916292;29;20757;-72
2023/09/08 11:37:00;;;;;;;14.50;8.10;;;;;;;;;;4924861;29;20473;-73
2023/09/08 11:39:26;;;;;;;10.20;8.00;;;;;;;;;;4934321;29;20485;-72
2023/09/08 11:41:53;;;;;;;11.73;8.13;;;;;;;;;;4934731;29;20216;-74
2023/09/08 11:44:20;;;;;;;9.90;7.63;;;;;;;;;;4934159;29;20429;-75
2023/09/08 11:46:48;;;;;;;12.30;7.87;;;;;;;;;;4934471;29;20450;-75
2023/09/08 11:49:14;;;;;;;13.97;8.43;;;;;;;;;;4933823;29;20429;-73
2023/09/08 11:51:40;;;;;;;9.07;7.83;;;;;;;;;;4933642;29;20441;-72
2023/09/08 11:54:06;;;;;;;8.87;7.30;;;;;;;;;;4925958;29;20434;-72
2023/09/08 11:56:32;;;;;;;11.60;7.87;;;;;;;;;;4932304;29;20222;-71
2023/09/08 11:58:58;;;;;;;11.70;8.50;;;;;;;;;;4934090;29;20909;-72
2023/09/08 12:01:25;;;;;;;10.27;8.50;;;;;;;;;;4933622;29;20437;-73
2023/09/08 12:03:52;;;;;;;11.40;7.60;;;;;;;;;;4934360;29;20425;-72
2023/09/08 12:06:18;;;;;;;10.70;7.53;;;;;;;;;;4933725;29;20449;-73
2023/09/08 12:08:44;;;;;;;10.53;8.37;;;;;;;;;;4926179;29;20444;-71
2023/09/08 12:11:11;;;;;;;15.33;8.40;;;;;;;;;;4911886;29;20434;-71
2023/09/08 12:13:37;;;;;;;12.23;8.90;;;;;;;;;;4917950;29;20434;-72
2023/09/08 12:16:03;;;;;;;10.30;8.10;;;;;;;;;;4933860;23;20526;-73
2023/09/08 12:18:39;;;;;;;10.80;7.80;;;;;;;;;;4899412;29;20830;-73
2023/09/08 12:21:06;;;;;;;12.50;8.57;;;;;;;;;;4899827;29;20469;-72
2023/09/08 12:23:32;;;;;;;11.90;8.50;;;;;;;;;;4899701;29;20450;-71
2023/09/08 12:25:58;;;;;;;10.43;7.77;;;;;;;;;;4893067;29;20959;-71
2023/09/08 12:28:30;;;;;;;9.60;7.93;;;;;;;;;;4881038;29;20851;-73
2023/09/08 12:30:57;;;;;;;12.53;8.30;;;;;;;;;;4880229;29;20437;-72
2023/09/08 12:33:22;;;;;;;10.33;8.03;;;;;;;;;;4881158;29;20936;-72
2023/09/08 12:35:50;;;;;;;15.90;8.03;;;;;;;;;;4880322;29;20557;-73
2023/09/08 12:38:16;;;;;;;10.80;7.33;;;;;;;;;;4884449;29;20636;-70
2023/09/08 12:40:42;;;;;;;10.67;8.30;;;;;;;;;;4884401;29;20465;-70
2023/09/08 12:43:08;;;;;;;11.40;7.97;;;;;;;;;;4884177;29;20804;-69
2023/09/08 12:45:34;;;;;;;8.70;7.37;;;;;;;;;;4885593;29;20448;-70
2023/09/08 12:48:02;;;;;;;11.43;7.90;;;;;;;;;;4883706;29;20527;-70
2023/09/08 12:50:28;;;;;;;10.47;8.53;;;;;;;;;;4910377;29;20499;-69
2023/09/08 12:52:54;;;;;;;10.40;7.60;;;;;;;;;;4879954;29;20970;-69
2023/09/08 12:55:20;;;;;;;12.30;8.10;;;;;;;;;;4880173;29;20464;-70
2023/09/08 12:57:46;;;;;;;11.03;8.53;;;;;;;;;;4880025;29;20503;-71
2023/09/08 13:00:13;;;;;;;8.93;7.80;;;;;;;;;;4880246;29;20452;-69
2023/09/08 13:02:41;;;;;;;14.93;8.57;;;;;;;;;;4879954;29;20435;-69
2023/09/08 13:05:07;;;;;;;15.97;9.00;;;;;;;;;;4910425;29;20428;-69
2023/09/08 13:07:34;;;;;;;10.53;7.90;;;;;;;;;;4879859;29;20459;-69
2023/09/08 13:10:00;;;;;;;12.53;8.07;;;;;;;;;;4880351;29;20473;-68
2023/09/08 13:12:26;;;;;;;11.37;8.63;;;;;;;;;;4879917;29;20492;-70
2023/09/08 13:14:53;;;;;;;11.33;8.30;;;;;;;;;;4879901;29;20432;-70
2023/09/08 13:17:20;;;;;;;9.67;7.70;;;;;;;;;;4879619;29;20486;-69
2023/09/08 13:19:46;;;;;;;11.20;8.03;;;;;;;;;;4879554;29;20428;-69
2023/09/08 13:22:12;;;;;;;12.70;9.27;;;;;;;;;;4879564;29;20436;-70
2023/09/08 13:24:38;;;;;;;10.10;7.70;;;;;;;;;;4879777;29;20428;-69
2023/09/08 13:27:04;;;;;;;11.90;8.47;;;;;;;;;;4879510;29;20587;-70
2023/09/08 13:29:30;;;;;;;15.23;9.10;;;;;;;;;;4879850;29;20464;-69
2023/09/08 13:31:57;;;;;;;10.70;8.77;;;;;;;;;;4879314;29;20535;-70
2023/09/08 13:34:23;;;;;;;12.30;8.07;;;;;;;;;;4879425;29;20454;-68
2023/09/08 13:36:49;;;;;;;13.30;7.70;;;;;;;;;;4879296;29;20476;-68
2023/09/08 13:39:15;;;;;;;10.67;7.70;;;;;;;;;;4879393;29;20931;-69
2023/09/08 13:41:44;;;;;;;12.57;7.47;;;;;;;;;;4879091;29;20423;-67
2023/09/08 13:44:10;;;;;;;9.97;7.67;;;;;;;;;;4879360;29;20971;-66
2023/09/08 13:46:36;;;;;;;13.07;8.50;;;;;;;;;;4879481;29;20531;-66
2023/09/08 13:49:02;;;;;;;18.97;8.60;;;;;;;;;;4879322;29;20694;-67
2023/09/08 13:51:28;;;;;;;11.90;8.10;;;;;;;;;;4878921;29;20428;-68
2023/09/08 13:53:54;;;;;;;13.20;8.40;;;;;;;;;;4879118;29;20924;-68
2023/09/08 13:56:20;;;;;;;11.40;8.03;;;;;;;;;;4879397;29;20440;-68
2023/09/08 13:58:46;;;;;;;11.37;6.93;;;;;;;;;;4879050;29;20424;-67
2023/09/08 14:01:12;;;;;;;9.00;7.30;;;;;;;;;;4878913;29;20429;-67
2023/09/08 14:03:38;;;;;;;8.50;7.43;;;;;;;;;;4879103;29;20416;-67
2023/09/08 14:06:04;;;;;;;8.20;6.87;;;;;;;;;;4879395;29;20928;-66
2023/09/08 14:08:30;;;;;;;11.50;8.10;;;;;;;;;;4879021;29;20907;-69
2023/09/08 14:10:56;;;;;;;15.10;7.27;;;;;;;;;;4878713;29;20527;-68
2023/09/08 14:13:21;;;;;;;13.83;7.50;;;;;;;;;;4878697;29;20460;-68
2023/09/08 14:15:47;;;;;;;13.83;7.50;;;;;;;;;;4878527;29;20464;-68
2023/09/08 14:18:14;;;;;;;11.50;7.77;;;;;;;;;;4878774;29;20468;-68
2023/09/08 14:20:40;;;;;;;18.77;7.43;;;;;;;;;;4878865;29;20939;-68
2023/09/08 14:23:09;;;;;;;10.00;7.30;;;;;;;;;;4907125;29;20443;-67
2023/09/08 14:25:35;;;;;;;17.50;7.53;;;;;;;;;;4873029;29;20445;-67
2023/09/08 14:28:04;;;;;;;14.80;6.87;;;;;;;;;;4878696;29;20420;-67
2023/09/08 14:30:30;;;;;;;10.00;6.57;;;;;;;;;;4878608;29;20424;-67
2023/09/08 14:32:56;;;;;;;11.27;7.37;;;;;;;;;;4878331;29;20776;-67
2023/09/08 14:35:22;;;;;;;12.27;7.30;;;;;;;;;;4878505;29;20436;-67
2023/09/08 14:37:48;;;;;;;13.80;7.00;;;;;;;;;;4878059;29;20482;-67
2023/09/08 14:40:15;;;;;;;12.13;8.73;;;;;;;;;;4878427;29;20421;-66
2023/09/08 14:42:41;;;;;;;12.80;7.83;;;;;;;;;;4878631;29;20443;-67
2023/09/08 14:45:07;;;;;;;12.40;7.50;;;;;;;;;;4908166;29;20495;-66
2023/09/08 14:47:33;;;;;;;12.73;7.00;;;;;;;;;;4878060;29;20455;-66
2023/09/08 14:49:59;;;;;;;9.70;6.70;;;;;;;;;;4878184;29;20460;-66
2023/09/08 14:52:25;;;;;;;12.50;6.67;;;;;;;;;;4911348;29;20440;-66
2023/09/08 14:54:51;;;;;;;12.73;7.07;;;;;;;;;;4882368;29;20443;-67
2023/09/08 14:57:17;;;;;;;9.40;6.63;;;;;;;;;;4878551;29;20486;-66
2023/09/08 14:59:44;;;;;;;10.20;7.37;;;;;;;;;;4877958;29;20460;-66
2023/09/08 15:02:09;;;;;;;11.90;6.90;;;;;;;;;;4877443;29;20431;-66
2023/09/08 15:04:35;;;;;;;13.93;7.60;;;;;;;;;;4878665;29;20424;-66
2023/09/08 15:07:01;;;;;;;7.90;6.90;;;;;;;;;;4877428;29;20452;-67
2023/09/08 15:09:27;;;;;;;15.83;7.80;;;;;;;;;;4877695;29;20881;-66
2023/09/08 15:11:53;;;;;;;10.60;7.00;;;;;;;;;;4877701;29;20435;-65
2023/09/08 15:14:19;;;;;;;9.53;7.03;;;;;;;;;;4877745;29;20515;-65
2023/09/08 15:16:45;;;;;;;12.33;7.60;;;;;;;;;;4877315;29;21014;-66
2023/09/08 15:19:11;;;;;;;15.77;6.87;;;;;;;;;;4878663;29;20917;-66
2023/09/08 15:21:38;;;;;;;11.10;7.07;;;;;;;;;;4877721;29;20424;-66
2023/09/08 15:24:04;;;;;;;11.20;6.30;;;;;;;;;;4878063;29;20420;-66
2023/09/08 15:26:30;;;;;;;7.93;6.60;;;;;;;;;;4877713;29;20455;-66
2023/09/08 15:28:56;;;;;;;10.70;7.27;;;;;;;;;;4878649;29;20504;-66
2023/09/08 15:31:23;;;;;;;10.03;7.27;;;;;;;;;;4877206;29;20412;-66
2023/09/08 15:33:49;;;;;;;13.47;6.50;;;;;;;;;;4878043;29;20432;-65
2023/09/08 15:36:15;;;;;;;9.93;6.73;;;;;;;;;;4878382;29;20925;-68
2023/09/08 15:38:41;;;;;;;7.53;5.93;;;;;;;;;;4877814;29;20467;-67
2023/09/08 15:41:07;;;;;;;11.63;7.30;;;;;;;;;;4877056;29;20485;-66
2023/09/08 15:43:41;;;;;;;11.13;7.23;;;;;;;;;;4880156;29;20420;-67
2023/09/08 15:46:08;;;;;;;9.97;7.47;;;;;;;;;;4880871;29;20270;-66
2023/09/08 15:48:34;;;;;;;9.50;6.77;;;;;;;;;;4881107;29;20439;-67
2023/09/08 15:51:00;;;;;;;11.57;7.93;;;;;;;;;;4880542;29;20451;-67
2023/09/08 15:53:26;;;;;;;12.27;7.50;;;;;;;;;;4882277;29;20424;-66
2023/09/08 15:55:52;;;;;;;10.07;7.20;;;;;;;;;;4881071;29;20998;-67
2023/09/08 15:58:18;;;;;;;12.20;7.40;;;;;;;;;;4880796;29;20502;-67
2023/09/08 16:00:44;;;;;;;10.57;7.23;;;;;;;;;;4881090;29;20428;-65
2023/09/08 16:03:10;;;;;;;11.77;7.37;;;;;;;;;;4880822;29;20507;-66
2023/09/08 16:05:36;;;;;;;9.83;6.63;;;;;;;;;;4880214;29;20511;-66
2023/09/08 16:08:02;;;;;;;10.90;7.37;;;;;;;;;;4880221;29;20420;-66
2023/09/08 16:10:28;;;;;;;12.93;7.20;;;;;;;;;;4878714;29;20507;-66
2023/09/08 16:12:55;;;;;;;10.37;7.30;;;;;;;;;;4880461;29;20479;-66
2023/09/08 16:15:21;;;;;;;8.77;7.07;;;;;;;;;;4890750;29;20438;-66
2023/09/08 16:17:47;;;;;;;15.13;8.70;;;;;;;;;;4899237;29;20459;-66
2023/09/08 16:20:13;;;;;;;8.97;7.00;;;;;;;;;;4899251;29;20423;-66
2023/09/08 16:22:39;;;;;;;11.03;7.30;;;;;;;;;;4898900;29;20419;-66
2023/09/08 16:25:05;;;;;;;11.10;7.40;;;;;;;;;;4898806;29;20518;-66
2023/09/08 16:27:31;;;;;;;6.80;6.23;;;;;;;;;;4899031;29;20510;-66
2023/09/08 16:29:57;;;;;;;9.20;6.83;;;;;;;;;;4899211;29;20938;-67
2023/09/08 16:32:23;;;;;;;15.83;7.10;;;;;;;;;;4898859;29;20483;-66
2023/09/08 16:34:49;;;;;;;14.77;7.70;;;;;;;;;;4898956;29;20914;-66
2023/09/08 16:37:15;;;;;;;9.17;7.40;;;;;;;;;;4899074;29;20466;-66
2023/09/08 16:39:41;;;;;;;10.00;7.03;;;;;;;;;;4893485;29;20451;-66
2023/09/08 16:42:07;;;;;;;7.93;6.37;;;;;;;;;;4877688;29;20424;-66
2023/09/08 16:44:33;;;;;;;13.13;6.83;;;;;;;;;;4879835;29;20440;-66
2023/09/08 16:46:59;;;;;;;12.50;6.20;;;;;;;;;;4879938;29;20452;-66
2023/09/08 16:49:26;;;;;;;9.77;6.73;;;;;;;;;;4872206;29;20428;-66
2023/09/08 16:51:56;;;;;;;11.23;7.40;;;;;;;;;;4879519;29;20425;-66
2023/09/08 16:54:22;;;;;;;10.07;6.57;;;;;;;;;;4872091;29;20524;-66
2023/09/08 16:56:48;;;;;;;15.40;6.43;;;;;;;;;;4879354;29;20566;-67
2023/09/08 16:59:14;;;;;;;11.07;7.27;;;;;;;;;;4879358;29;20428;-66
2023/09/08 17:01:40;;;;;;;14.53;7.17;;;;;;;;;;4879535;29;20424;-67
2023/09/08 17:04:09;;;;;;;15.20;8.17;;;;;;;;;;4879223;29;20805;-67
2023/09/08 17:06:35;;;;;;;10.27;7.50;;;;;;;;;;4879557;29;20456;-68
2023/09/08 17:09:01;;;;;;;9.60;6.97;;;;;;;;;;4879694;29;20500;-68
2023/09/08 17:11:27;;;;;;;12.23;6.60;;;;;;;;;;4879020;29;20570;-68
2023/09/08 17:13:53;;;;;;;8.63;6.43;;;;;;;;;;4879732;29;20435;-66
2023/09/08 17:16:18;;;;;;;14.57;8.00;;;;;;;;;;4878904;29;20877;-67
2023/09/08 17:18:44;;;;;;;11.57;7.67;;;;;;;;;;4879375;29;20435;-67
2023/09/08 17:21:10;;;;;;;12.10;8.83;;;;;;;;;;4878860;29;20908;-66
2023/09/08 17:23:36;;;;;;;15.53;8.37;;;;;;;;;;4879223;29;20419;-66
2023/09/08 17:26:02;;;;;;;8.77;7.20;;;;;;;;;;4878964;29;20448;-66
2023/09/08 17:28:28;;;;;;;10.50;7.03;;;;;;;;;;4879159;29;20511;-66
2023/09/08 17:30:54;;;;;;;11.00;7.47;;;;;;;;;;4879194;29;20484;-67
2023/09/08 17:33:20;;;;;;;21.00;9.13;;;;;;;;;;4879147;29;20417;-67
2023/09/08 17:35:49;;;;;;;10.60;7.67;;;;;;;;;;4880130;29;20812;-67
2023/09/08 17:38:15;;;;;;;8.37;7.43;;;;;;;;;;4878625;29;20495;-66
2023/09/08 17:40:41;;;;;;;10.70;6.70;;;;;;;;;;4878926;29;20461;-67
2023/09/08 17:43:07;;;;;;;8.27;6.93;;;;;;;;;;4878456;29;20432;-67
2023/09/08 17:45:33;;;;;;;13.10;7.10;;;;;;;;;;4880569;29;20462;-66
2023/09/08 17:48:00;;;;;;;10.37;6.23;;;;;;;;;;4879971;29;20436;-66
2023/09/08 17:50:26;;;;;;;11.30;7.70;;;;;;;;;;4878713;29;20508;-67
2023/09/08 17:52:52;;;;;;;12.77;7.97;;;;;;;;;;4878364;29;20642;-66
2023/09/08 17:55:18;;;;;;;12.50;8.10;;;;;;;;;;4878762;29;20511;-66
2023/09/08 17:57:44;;;;;;;10.20;7.70;;;;;;;;;;4878643;29;20468;-68
2023/09/08 18:00:10;;;;;;;10.17;6.53;;;;;;;;;;4878675;29;20924;-67
2023/09/08 18:02:36;;;;;;;9.00;7.20;;;;;;;;;;4878452;29;20729;-67
2023/09/08 18:05:02;;;;;;;15.50;9.17;;;;;;;;;;4878670;29;20416;-66
2023/09/08 18:07:28;;;;;;;15.00;8.80;;;;;;;;;;4870053;29;20831;-66
2023/09/08 18:09:54;;;;;;;11.87;7.70;;;;;;;;;;4878910;29;20759;-67
2023/09/08 18:12:20;;;;;;;12.20;8.07;;;;;;;;;;4878063;29;20464;-66
2023/09/08 18:14:46;;;;;;;12.50;8.57;;;;;;;;;;4878453;29;20428;-66
2023/09/08 18:17:12;;;;;;;14.23;8.97;;;;;;;;;;4877840;29;20479;-66
2023/09/08 18:19:38;;;;;;;13.23;8.33;;;;;;;;;;4902322;29;20424;-66
2023/09/08 18:22:04;;;;;;;13.90;9.20;;;;;;;;;;4872406;29;20448;-66
2023/09/08 18:24:30;;;;;;;14.27;9.77;;;;;;;;;;4876189;29;20432;-66
2023/09/08 18:26:56;;;;;;;19.53;10.43;;;;;;;;;;4876353;29;20522;-67
2023/09/08 18:29:22;;;;;;;13.93;10.60;;;;;;;;;;4886542;29;20423;-67
2023/09/08 18:31:48;;;;;;;14.57;8.77;;;;;;;;;;4896309;29;20507;-66
2023/09/08 18:34:14;;;;;;;16.57;9.37;;;;;;;;;;4897871;29;20506;-66
2023/09/08 18:36:41;;;;;;;18.23;8.90;;;;;;;;;;4897170;29;20554;-66
2023/09/08 18:39:07;;;;;;;14.60;8.73;;;;;;;;;;4897140;29;20428;-66
2023/09/08 18:41:33;;;;;;;13.83;9.93;;;;;;;;;;4896390;29;20431;-66
2023/09/08 18:43:59;;;;;;;12.97;9.43;;;;;;;;;;4896659;29;20916;-66
2023/09/08 18:46:25;;;;;;;20.17;10.87;;;;;;;;;;4896930;29;20424;-65
2023/09/08 18:48:51;;;;;;;13.13;8.40;;;;;;;;;;4896742;29;20434;-66
2023/09/08 18:51:17;;;;;;;15.10;9.23;;;;;;;;;;4896424;29;20407;-66
2023/09/08 18:53:43;;;;;;;16.97;10.23;;;;;;;;;;4896899;29;20839;-66
2023/09/08 18:56:09;;;;;;;16.60;10.47;;;;;;;;;;4896522;29;20522;-66
2023/09/08 18:58:38;;;;;;;16.20;10.10;;;;;;;;;;4896449;29;20604;-66
2023/09/08 19:01:05;;;;;;;17.33;11.40;;;;;;;;;;4896022;29;20555;-66
2023/09/08 19:03:31;;;;;;;16.27;9.73;;;;;;;;;;4865591;29;20450;-67
2023/09/08 19:05:57;;;;;;;14.60;10.27;;;;;;;;;;4896212;29;20470;-66
2023/09/08 19:08:23;;;;;;;19.27;10.77;;;;;;;;;;4896297;29;20420;-65
2023/09/08 19:10:49;;;;;;;20.83;10.90;;;;;;;;;;4896915;29;20483;-66
2023/09/08 19:13:15;;;;;;;15.27;10.70;;;;;;;;;;4896836;29;20903;-67
2023/09/08 19:15:41;;;;;;;20.00;10.83;;;;;;;;;;4897239;29;20615;-67
2023/09/08 19:18:07;;;;;;;21.40;12.50;;;;;;;;;;4896990;29;20470;-66
2023/09/08 19:20:33;;;;;;;28.80;15.90;;;;;;;;;;4897666;29;20438;-66
2023/09/08 19:22:59;;;;;;;23.17;13.63;;;;;;;;;;4896497;29;20427;-67
2023/09/08 19:25:25;;;;;;;42.83;16.63;;;;;;;;;;4896538;29;20794;-65
2023/09/08 19:27:51;;;;;;;28.27;16.27;;;;;;;;;;4896331;29;20420;-64
2023/09/08 19:30:17;;;;;;;26.60;15.00;;;;;;;;;;4896511;29;20423;-64
2023/09/08 19:32:43;;;;;;;19.53;13.10;;;;;;;;;;4895791;29;20458;-64
2023/09/08 19:35:11;;;;;;;22.20;13.80;;;;;;;;;;4895610;29;20436;-65
2023/09/08 19:37:37;;;;;;;24.13;13.97;;;;;;;;;;4896093;29;20467;-65
2023/09/08 19:40:03;;;;;;;34.03;14.20;;;;;;;;;;4895031;29;20415;-64
2023/09/08 19:42:29;;;;;;;25.93;15.23;;;;;;;;;;4895894;29;20443;-66
2023/09/08 19:44:55;;;;;;;23.20;14.00;;;;;;;;;;4895439;29;20885;-66
2023/09/08 19:47:21;;;;;;;24.57;14.67;;;;;;;;;;4895912;29;20477;-65
2023/09/08 19:49:47;;;;;;;26.03;16.40;;;;;;;;;;4896159;29;20442;-64
2023/09/08 19:52:14;;;;;;;29.73;17.30;;;;;;;;;;4896075;29;20423;-64
2023/09/08 19:54:40;;;;;;;34.73;19.67;;;;;;;;;;4894213;29;20443;-65
2023/09/08 19:57:07;;;;;;;33.93;19.63;;;;;;;;;;4895530;29;20481;-65
2023/09/08 19:59:33;;;;;;;25.90;17.20;;;;;;;;;;4896565;29;20419;-65
2023/09/08 20:01:59;;;;;;;27.50;15.80;;;;;;;;;;4895976;29;20788;-66
2023/09/08 20:04:25;;;;;;;35.10;15.90;;;;;;;;;;4902931;29;20738;-66
2023/09/08 20:06:53;;;;;;;29.33;16.60;;;;;;;;;;4903754;29;20451;-66
2023/09/08 20:09:19;;;;;;;25.53;16.53;;;;;;;;;;4898054;29;20419;-65
2023/09/08 20:11:45;;;;;;;28.07;17.53;;;;;;;;;;4896459;29;20426;-65
2023/09/08 20:14:11;;;;;;;30.13;16.83;;;;;;;;;;4896085;29;20780;-65
2023/09/08 20:16:37;;;;;;;28.13;16.00;;;;;;;;;;4895698;29;20473;-65
2023/09/08 20:19:03;;;;;;;28.33;16.57;;;;;;;;;;4896677;29;20459;-66
2023/09/08 20:21:29;;;;;;;25.10;15.67;;;;;;;;;;4887143;29;20447;-66
2023/09/08 20:23:55;;;;;;;25.07;14.90;;;;;;;;;;4875370;29;20906;-65
2023/09/08 20:26:22;;;;;;;29.50;14.50;;;;;;;;;;4882395;29;20439;-65
2023/09/08 20:28:48;;;;;;;24.93;13.90;;;;;;;;;;4897126;29;20459;-66